sensor_id;sensor_type;location;lat;lon;timestamp;P1;durP1;ratioP1;P2;durP2;ratioP2
29984;SDS011;17387;42.690;23.328;2022-11-18T00:00:09;67.03;;;40.53;;
29984;SDS011;17387;42.690;23.328;2022-11-18T00:02:36;63.60;;;40.50;;
29984;SDS011;17387;42.690;23.328;2022-11-18T00:05:01;69.03;;;39.80;;
29984;SDS011;17387;42.690;23.328;2022-11-18T00:07:26;67.72;;;39.72;;
29984;SDS011;17387;42.690;23.328;2022-11-18T00:09:52;60.47;;;39.08;;
29984;SDS011;17387;42.690;23.328;2022-11-18T00:12:17;66.60;;;38.15;;
29984;SDS011;17387;42.690;23.328;2022-11-18T00:15:01;62.13;;;38.53;;
29984;SDS011;17387;42.690;23.328;2022-11-18T00:17:26;58.00;;;36.50;;
29984;SDS011;17387;42.690;23.328;2022-11-18T00:19:52;61.60;;;35.88;;
29984;SDS011;17387;42.690;23.328;2022-11-18T00:22:17;62.70;;;37.45;;
29984;SDS011;17387;42.690;23.328;2022-11-18T00:24:43;55.35;;;37.05;;
29984;SDS011;17387;42.690;23.328;2022-11-18T00:27:08;63.90;;;39.67;;
29984;SDS011;17387;42.690;23.328;2022-11-18T00:29:33;60.67;;;39.33;;
29984;SDS011;17387;42.690;23.328;2022-11-18T00:31:59;66.28;;;41.70;;
29984;SDS011;17387;42.690;23.328;2022-11-18T00:34:24;63.20;;;42.67;;
29984;SDS011;17387;42.690;23.328;2022-11-18T00:36:50;74.40;;;44.80;;
29984;SDS011;17387;42.690;23.328;2022-11-18T00:39:17;67.50;;;41.72;;
29984;SDS011;17387;42.690;23.328;2022-11-18T00:41:43;115.95;;;75.43;;
29984;SDS011;17387;42.690;23.328;2022-11-18T00:44:28;84.32;;;53.08;;
29984;SDS011;17387;42.690;23.328;2022-11-18T00:46:54;106.20;;;68.13;;
29984;SDS011;17387;42.690;23.328;2022-11-18T00:49:19;102.43;;;61.70;;
29984;SDS011;17387;42.690;23.328;2022-11-18T00:51:45;120.85;;;77.47;;
29984;SDS011;17387;42.690;23.328;2022-11-18T00:54:10;89.68;;;58.05;;
29984;SDS011;17387;42.690;23.328;2022-11-18T00:56:36;93.28;;;61.78;;
29984;SDS011;17387;42.690;23.328;2022-11-18T00:59:01;132.10;;;83.97;;
29984;SDS011;17387;42.690;23.328;2022-11-18T01:01:27;127.05;;;79.95;;
29984;SDS011;17387;42.690;23.328;2022-11-18T01:03:52;113.03;;;74.88;;
29984;SDS011;17387;42.690;23.328;2022-11-18T01:06:18;107.57;;;73.45;;
29984;SDS011;17387;42.690;23.328;2022-11-18T01:08:43;89.97;;;58.28;;
29984;SDS011;17387;42.690;23.328;2022-11-18T01:11:09;87.63;;;55.67;;
29984;SDS011;17387;42.690;23.328;2022-11-18T01:13:53;77.32;;;47.63;;
29984;SDS011;17387;42.690;23.328;2022-11-18T01:16:19;68.13;;;45.60;;
29984;SDS011;17387;42.690;23.328;2022-11-18T01:18:46;75.65;;;45.75;;
29984;SDS011;17387;42.690;23.328;2022-11-18T01:21:12;83.63;;;54.17;;
29984;SDS011;17387;42.690;23.328;2022-11-18T01:23:38;88.40;;;55.28;;
29984;SDS011;17387;42.690;23.328;2022-11-18T01:26:05;86.82;;;54.20;;
29984;SDS011;17387;42.690;23.328;2022-11-18T01:28:32;74.03;;;49.78;;
29984;SDS011;17387;42.690;23.328;2022-11-18T01:31:17;77.13;;;48.13;;
29984;SDS011;17387;42.690;23.328;2022-11-18T01:33:43;74.45;;;48.22;;
29984;SDS011;17387;42.690;23.328;2022-11-18T01:38:51;92.95;;;57.45;;
29984;SDS011;17387;42.690;23.328;2022-11-18T01:41:19;92.82;;;57.50;;
29984;SDS011;17387;42.690;23.328;2022-11-18T01:46:26;132.77;;;80.90;;
29984;SDS011;17387;42.690;23.328;2022-11-18T01:51:30;112.30;;;71.22;;
29984;SDS011;17387;42.690;23.328;2022-11-18T01:54:03;98.93;;;64.80;;
29984;SDS011;17387;42.690;23.328;2022-11-18T01:56:36;101.50;;;64.53;;
29984;SDS011;17387;42.690;23.328;2022-11-18T01:59:06;110.22;;;66.30;;
29984;SDS011;17387;42.690;23.328;2022-11-18T02:01:37;108.90;;;62.45;;
29984;SDS011;17387;42.690;23.328;2022-11-18T02:04:04;233.43;;;68.53;;
29984;SDS011;17387;42.690;23.328;2022-11-18T02:06:31;276.67;;;71.93;;
29984;SDS011;17387;42.690;23.328;2022-11-18T02:08:57;177.25;;;68.40;;
29984;SDS011;17387;42.690;23.328;2022-11-18T02:11:23;131.25;;;70.03;;
29984;SDS011;17387;42.690;23.328;2022-11-18T02:14:07;113.60;;;64.82;;
29984;SDS011;17387;42.690;23.328;2022-11-18T02:19:31;117.60;;;65.95;;
29984;SDS011;17387;42.690;23.328;2022-11-18T02:24:49;138.93;;;70.82;;
29984;SDS011;17387;42.690;23.328;2022-11-18T02:27:34;128.80;;;65.72;;
29984;SDS011;17387;42.690;23.328;2022-11-18T02:30:19;107.35;;;61.65;;
29984;SDS011;17387;42.690;23.328;2022-11-18T02:35:45;107.18;;;62.92;;
29984;SDS011;17387;42.690;23.328;2022-11-18T02:41:09;110.78;;;64.47;;
29984;SDS011;17387;42.690;23.328;2022-11-18T02:43:42;106.45;;;64.47;;
29984;SDS011;17387;42.690;23.328;2022-11-18T02:46:24;121.35;;;67.45;;
29984;SDS011;17387;42.690;23.328;2022-11-18T02:48:54;112.25;;;65.65;;
29984;SDS011;17387;42.690;23.328;2022-11-18T02:51:24;113.30;;;67.70;;
29984;SDS011;17387;42.690;23.328;2022-11-18T02:53:53;107.88;;;66.85;;
29984;SDS011;17387;42.690;23.328;2022-11-18T02:56:20;120.80;;;68.10;;
29984;SDS011;17387;42.690;23.328;2022-11-18T02:58:49;115.85;;;66.78;;
29984;SDS011;17387;42.690;23.328;2022-11-18T03:01:19;115.80;;;66.75;;
29984;SDS011;17387;42.690;23.328;2022-11-18T03:03:47;109.18;;;66.78;;
29984;SDS011;17387;42.690;23.328;2022-11-18T03:09:04;117.57;;;67.25;;
29984;SDS011;17387;42.690;23.328;2022-11-18T03:11:39;110.32;;;65.57;;
29984;SDS011;17387;42.690;23.328;2022-11-18T03:22:36;127.57;;;68.20;;
29984;SDS011;17387;42.690;23.328;2022-11-18T03:30:27;173.40;;;77.70;;
29984;SDS011;17387;42.690;23.328;2022-11-18T03:32:58;224.98;;;79.25;;
29984;SDS011;17387;42.690;23.328;2022-11-18T03:35:31;221.07;;;79.15;;
29984;SDS011;17387;42.690;23.328;2022-11-18T03:38:01;237.77;;;78.40;;
29984;SDS011;17387;42.690;23.328;2022-11-18T03:40:31;183.15;;;73.78;;
29984;SDS011;17387;42.690;23.328;2022-11-18T03:43:02;212.73;;;78.80;;
29984;SDS011;17387;42.690;23.328;2022-11-18T03:45:49;174.88;;;75.05;;
29984;SDS011;17387;42.690;23.328;2022-11-18T03:48:20;190.10;;;77.32;;
29984;SDS011;17387;42.690;23.328;2022-11-18T03:50:50;188.88;;;74.93;;
29984;SDS011;17387;42.690;23.328;2022-11-18T03:53:20;195.48;;;78.28;;
29984;SDS011;17387;42.690;23.328;2022-11-18T03:55:50;157.13;;;73.13;;
29984;SDS011;17387;42.690;23.328;2022-11-18T04:00:57;335.40;;;79.25;;
29984;SDS011;17387;42.690;23.328;2022-11-18T04:03:28;540.47;;;78.70;;
29984;SDS011;17387;42.690;23.328;2022-11-18T04:06:06;699.92;;;84.53;;
29984;SDS011;17387;42.690;23.328;2022-11-18T04:08:39;477.83;;;80.72;;
29984;SDS011;17387;42.690;23.328;2022-11-18T04:11:13;709.35;;;85.35;;
29984;SDS011;17387;42.690;23.328;2022-11-18T04:14:02;769.28;;;85.25;;
29984;SDS011;17387;42.690;23.328;2022-11-18T04:16:37;425.45;;;80.13;;
29984;SDS011;17387;42.690;23.328;2022-11-18T04:19:08;473.80;;;78.50;;
29984;SDS011;17387;42.690;23.328;2022-11-18T04:21:33;514.60;;;82.50;;
29984;SDS011;17387;42.690;23.328;2022-11-18T04:23:59;307.08;;;74.68;;
29984;SDS011;17387;42.690;23.328;2022-11-18T04:26:24;256.17;;;72.15;;
29984;SDS011;17387;42.690;23.328;2022-11-18T04:28:50;261.02;;;74.95;;
29984;SDS011;17387;42.690;23.328;2022-11-18T04:31:15;316.05;;;72.65;;
29984;SDS011;17387;42.690;23.328;2022-11-18T04:33:40;279.55;;;70.32;;
29984;SDS011;17387;42.690;23.328;2022-11-18T04:36:06;456.60;;;74.63;;
29984;SDS011;17387;42.690;23.328;2022-11-18T04:38:31;297.30;;;74.88;;
29984;SDS011;17387;42.690;23.328;2022-11-18T04:40:57;507.92;;;83.30;;
29984;SDS011;17387;42.690;23.328;2022-11-18T04:43:22;250.02;;;72.45;;
29984;SDS011;17387;42.690;23.328;2022-11-18T04:45:47;425.60;;;81.60;;
29984;SDS011;17387;42.690;23.328;2022-11-18T04:48:13;649.92;;;90.35;;
29984;SDS011;17387;42.690;23.328;2022-11-18T04:50:38;258.10;;;65.13;;
29984;SDS011;17387;42.690;23.328;2022-11-18T04:53:04;424.35;;;76.20;;
29984;SDS011;17387;42.690;23.328;2022-11-18T04:55:29;382.38;;;76.00;;
29984;SDS011;17387;42.690;23.328;2022-11-18T04:57:55;383.50;;;74.53;;
29984;SDS011;17387;42.690;23.328;2022-11-18T05:00:20;623.63;;;85.75;;
29984;SDS011;17387;42.690;23.328;2022-11-18T05:02:47;548.15;;;82.22;;
29984;SDS011;17387;42.690;23.328;2022-11-18T05:05:12;740.38;;;92.63;;
29984;SDS011;17387;42.690;23.328;2022-11-18T05:07:38;672.22;;;83.55;;
29984;SDS011;17387;42.690;23.328;2022-11-18T05:10:03;404.27;;;76.18;;
29984;SDS011;17387;42.690;23.328;2022-11-18T05:12:29;446.65;;;73.15;;
29984;SDS011;17387;42.690;23.328;2022-11-18T05:15:13;773.10;;;83.60;;
29984;SDS011;17387;42.690;23.328;2022-11-18T05:17:43;1125.47;;;95.90;;
29984;SDS011;17387;42.690;23.328;2022-11-18T05:20:09;524.28;;;74.55;;
29984;SDS011;17387;42.690;23.328;2022-11-18T05:22:35;496.55;;;81.35;;
29984;SDS011;17387;42.690;23.328;2022-11-18T05:25:00;313.10;;;74.53;;
29984;SDS011;17387;42.690;23.328;2022-11-18T05:27:26;504.88;;;78.95;;
29984;SDS011;17387;42.690;23.328;2022-11-18T05:29:52;572.60;;;75.85;;
29984;SDS011;17387;42.690;23.328;2022-11-18T05:32:17;416.77;;;73.25;;
29984;SDS011;17387;42.690;23.328;2022-11-18T05:34:46;419.15;;;80.15;;
29984;SDS011;17387;42.690;23.328;2022-11-18T05:37:11;577.95;;;70.05;;
29984;SDS011;17387;42.690;23.328;2022-11-18T05:39:37;755.47;;;69.43;;
29984;SDS011;17387;42.690;23.328;2022-11-18T05:42:04;905.47;;;74.30;;
29984;SDS011;17387;42.690;23.328;2022-11-18T05:44:49;991.42;;;78.10;;
29984;SDS011;17387;42.690;23.328;2022-11-18T05:47:16;1022.17;;;80.25;;
29984;SDS011;17387;42.690;23.328;2022-11-18T05:49:42;521.20;;;69.75;;
29984;SDS011;17387;42.690;23.328;2022-11-18T05:52:07;570.92;;;67.63;;
29984;SDS011;17387;42.690;23.328;2022-11-18T05:54:33;700.20;;;65.65;;
29984;SDS011;17387;42.690;23.328;2022-11-18T05:56:58;711.35;;;63.85;;
29984;SDS011;17387;42.690;23.328;2022-11-18T05:59:24;982.85;;;46.92;;
29984;SDS011;17387;42.690;23.328;2022-11-18T06:02:00;513.05;;;39.75;;
29984;SDS011;17387;42.690;23.328;2022-11-18T06:04:30;779.65;;;45.00;;
29984;SDS011;17387;42.690;23.328;2022-11-18T06:07:08;589.53;;;50.38;;
29984;SDS011;17387;42.690;23.328;2022-11-18T06:09:40;787.58;;;60.70;;
29984;SDS011;17387;42.690;23.328;2022-11-18T06:12:09;866.53;;;61.00;;
29984;SDS011;17387;42.690;23.328;2022-11-18T06:17:56;545.92;;;51.35;;
29984;SDS011;17387;42.690;23.328;2022-11-18T06:20:25;781.65;;;63.55;;
29984;SDS011;17387;42.690;23.328;2022-11-18T06:22:52;439.58;;;53.60;;
29984;SDS011;17387;42.690;23.328;2022-11-18T06:25:19;558.05;;;51.35;;
29984;SDS011;17387;42.690;23.328;2022-11-18T06:27:45;655.67;;;53.05;;
29984;SDS011;17387;42.690;23.328;2022-11-18T06:30:12;761.67;;;57.05;;
29984;SDS011;17387;42.690;23.328;2022-11-18T06:32:38;433.83;;;52.70;;
29984;SDS011;17387;42.690;23.328;2022-11-18T06:35:03;253.27;;;47.50;;
29984;SDS011;17387;42.690;23.328;2022-11-18T06:37:29;749.63;;;50.22;;
29984;SDS011;17387;42.690;23.328;2022-11-18T06:39:54;402.30;;;46.30;;
29984;SDS011;17387;42.690;23.328;2022-11-18T06:42:20;446.25;;;45.83;;
29984;SDS011;17387;42.690;23.328;2022-11-18T06:45:04;319.17;;;41.25;;
29984;SDS011;17387;42.690;23.328;2022-11-18T06:47:30;546.50;;;45.03;;
29984;SDS011;17387;42.690;23.328;2022-11-18T06:49:55;498.17;;;44.60;;
29984;SDS011;17387;42.690;23.328;2022-11-18T06:52:21;263.25;;;38.42;;
29984;SDS011;17387;42.690;23.328;2022-11-18T06:54:47;462.42;;;42.88;;
29984;SDS011;17387;42.690;23.328;2022-11-18T06:57:13;401.55;;;44.13;;
29984;SDS011;17387;42.690;23.328;2022-11-18T06:59:39;226.35;;;34.65;;
29984;SDS011;17387;42.690;23.328;2022-11-18T07:02:04;197.95;;;33.90;;
29984;SDS011;17387;42.690;23.328;2022-11-18T07:04:30;486.40;;;37.70;;
29984;SDS011;17387;42.690;23.328;2022-11-18T07:06:57;404.33;;;37.80;;
29984;SDS011;17387;42.690;23.328;2022-11-18T07:09:23;197.77;;;37.22;;
29984;SDS011;17387;42.690;23.328;2022-11-18T07:11:48;383.95;;;37.53;;
29984;SDS011;17387;42.690;23.328;2022-11-18T07:14:14;293.48;;;34.67;;
29984;SDS011;17387;42.690;23.328;2022-11-18T07:16:39;213.43;;;33.58;;
29984;SDS011;17387;42.690;23.328;2022-11-18T07:19:11;277.58;;;34.50;;
29984;SDS011;17387;42.690;23.328;2022-11-18T07:21:37;255.10;;;32.40;;
29984;SDS011;17387;42.690;23.328;2022-11-18T07:24:07;271.73;;;32.80;;
29984;SDS011;17387;42.690;23.328;2022-11-18T07:26:33;236.70;;;33.88;;
29984;SDS011;17387;42.690;23.328;2022-11-18T07:29:00;196.52;;;30.48;;
29984;SDS011;17387;42.690;23.328;2022-11-18T07:31:25;336.20;;;33.40;;
29984;SDS011;17387;42.690;23.328;2022-11-18T07:33:51;552.22;;;33.95;;
29984;SDS011;17387;42.690;23.328;2022-11-18T07:36:20;185.50;;;33.10;;
29984;SDS011;17387;42.690;23.328;2022-11-18T07:38:47;181.40;;;35.65;;
29984;SDS011;17387;42.690;23.328;2022-11-18T07:41:17;152.38;;;35.08;;
29984;SDS011;17387;42.690;23.328;2022-11-18T07:43:44;196.18;;;32.60;;
29984;SDS011;17387;42.690;23.328;2022-11-18T07:48:40;268.15;;;30.70;;
29984;SDS011;17387;42.690;23.328;2022-11-18T07:51:06;200.75;;;63.53;;
29984;SDS011;17387;42.690;23.328;2022-11-18T07:53:32;116.55;;;33.08;;
29984;SDS011;17387;42.690;23.328;2022-11-18T07:55:58;148.45;;;42.67;;
29984;SDS011;17387;42.690;23.328;2022-11-18T07:58:23;175.00;;;37.72;;
29984;SDS011;17387;42.690;23.328;2022-11-18T08:00:49;131.63;;;37.25;;
29984;SDS011;17387;42.690;23.328;2022-11-18T08:03:14;247.93;;;35.50;;
29984;SDS011;17387;42.690;23.328;2022-11-18T08:05:40;194.38;;;34.15;;
29984;SDS011;17387;42.690;23.328;2022-11-18T08:08:05;204.77;;;34.92;;
29984;SDS011;17387;42.690;23.328;2022-11-18T08:10:30;96.25;;;33.97;;
29984;SDS011;17387;42.690;23.328;2022-11-18T08:12:56;221.20;;;36.38;;
29984;SDS011;17387;42.690;23.328;2022-11-18T08:15:42;177.75;;;36.47;;
29984;SDS011;17387;42.690;23.328;2022-11-18T08:18:07;142.80;;;38.22;;
29984;SDS011;17387;42.690;23.328;2022-11-18T08:20:36;210.48;;;37.13;;
29984;SDS011;17387;42.690;23.328;2022-11-18T08:23:01;112.35;;;40.35;;
29984;SDS011;17387;42.690;23.328;2022-11-18T08:25:27;102.00;;;39.63;;
29984;SDS011;17387;42.690;23.328;2022-11-18T08:27:53;127.15;;;39.20;;
29984;SDS011;17387;42.690;23.328;2022-11-18T08:30:19;103.53;;;39.88;;
29984;SDS011;17387;42.690;23.328;2022-11-18T08:32:47;90.13;;;38.42;;
29984;SDS011;17387;42.690;23.328;2022-11-18T08:35:12;94.57;;;39.30;;
29984;SDS011;17387;42.690;23.328;2022-11-18T08:37:38;87.82;;;37.67;;
29984;SDS011;17387;42.690;23.328;2022-11-18T08:40:03;95.38;;;42.20;;
29984;SDS011;17387;42.690;23.328;2022-11-18T08:42:29;102.82;;;41.70;;
29984;SDS011;17387;42.690;23.328;2022-11-18T08:44:55;102.15;;;41.38;;
29984;SDS011;17387;42.690;23.328;2022-11-18T08:47:20;136.70;;;39.25;;
29984;SDS011;17387;42.690;23.328;2022-11-18T08:49:46;100.25;;;41.17;;
29984;SDS011;17387;42.690;23.328;2022-11-18T08:52:11;111.18;;;40.08;;
29984;SDS011;17387;42.690;23.328;2022-11-18T08:54:37;124.40;;;39.45;;
29984;SDS011;17387;42.690;23.328;2022-11-18T08:57:02;110.97;;;42.53;;
29984;SDS011;17387;42.690;23.328;2022-11-18T08:59:28;194.25;;;43.08;;
29984;SDS011;17387;42.690;23.328;2022-11-18T09:01:53;111.07;;;41.55;;
29984;SDS011;17387;42.690;23.328;2022-11-18T09:04:18;106.72;;;43.53;;
29984;SDS011;17387;42.690;23.328;2022-11-18T09:06:44;97.50;;;43.03;;
29984;SDS011;17387;42.690;23.328;2022-11-18T09:09:09;117.88;;;44.95;;
29984;SDS011;17387;42.690;23.328;2022-11-18T09:11:36;116.18;;;46.33;;
29984;SDS011;17387;42.690;23.328;2022-11-18T09:14:03;116.72;;;45.30;;
29984;SDS011;17387;42.690;23.328;2022-11-18T09:16:29;116.05;;;46.30;;
29984;SDS011;17387;42.690;23.328;2022-11-18T09:18:57;113.45;;;46.25;;
29984;SDS011;17387;42.690;23.328;2022-11-18T09:21:23;108.82;;;45.88;;
29984;SDS011;17387;42.690;23.328;2022-11-18T09:23:50;110.18;;;45.75;;
29984;SDS011;17387;42.690;23.328;2022-11-18T09:26:17;117.03;;;50.63;;
29984;SDS011;17387;42.690;23.328;2022-11-18T09:28:45;131.93;;;60.00;;
29984;SDS011;17387;42.690;23.328;2022-11-18T09:31:12;115.95;;;50.05;;
29984;SDS011;17387;42.690;23.328;2022-11-18T09:33:38;109.75;;;51.33;;
29984;SDS011;17387;42.690;23.328;2022-11-18T09:36:04;108.47;;;48.17;;
29984;SDS011;17387;42.690;23.328;2022-11-18T09:38:36;112.72;;;48.05;;
29984;SDS011;17387;42.690;23.328;2022-11-18T09:41:15;119.68;;;49.40;;
29984;SDS011;17387;42.690;23.328;2022-11-18T09:49:35;110.05;;;51.47;;
29984;SDS011;17387;42.690;23.328;2022-11-18T09:52:05;110.65;;;51.15;;
29984;SDS011;17387;42.690;23.328;2022-11-18T09:54:39;117.75;;;54.70;;
29984;SDS011;17387;42.690;23.328;2022-11-18T09:57:19;114.93;;;52.40;;
29984;SDS011;17387;42.690;23.328;2022-11-18T09:59:46;118.28;;;50.95;;
29984;SDS011;17387;42.690;23.328;2022-11-18T10:04:37;114.97;;;53.28;;
29984;SDS011;17387;42.690;23.328;2022-11-18T10:07:02;130.32;;;56.88;;
29984;SDS011;17387;42.690;23.328;2022-11-18T10:09:39;118.88;;;54.78;;
29984;SDS011;17387;42.690;23.328;2022-11-18T10:22:53;101.95;;;49.67;;
29984;SDS011;17387;42.690;23.328;2022-11-18T10:27:48;97.05;;;46.95;;
29984;SDS011;17387;42.690;23.328;2022-11-18T10:30:16;108.60;;;48.20;;
29984;SDS011;17387;42.690;23.328;2022-11-18T10:32:57;99.90;;;48.65;;
29984;SDS011;17387;42.690;23.328;2022-11-18T10:37:58;105.20;;;51.97;;
29984;SDS011;17387;42.690;23.328;2022-11-18T10:40:31;98.78;;;48.10;;
29984;SDS011;17387;42.690;23.328;2022-11-18T10:42:58;81.20;;;40.65;;
29984;SDS011;17387;42.690;23.328;2022-11-18T10:45:30;48.40;;;26.80;;
29984;SDS011;17387;42.690;23.328;2022-11-18T10:50:54;56.22;;;29.77;;
29984;SDS011;17387;42.690;23.328;2022-11-18T10:56:06;61.60;;;32.35;;
29984;SDS011;17387;42.690;23.328;2022-11-18T10:58:36;62.70;;;35.65;;
29984;SDS011;17387;42.690;23.328;2022-11-18T11:04:05;62.13;;;30.92;;
29984;SDS011;17387;42.690;23.328;2022-11-18T11:06:47;57.35;;;30.50;;
29984;SDS011;17387;42.690;23.328;2022-11-18T11:11:38;74.13;;;38.08;;
29984;SDS011;17387;42.690;23.328;2022-11-18T11:19:50;77.13;;;41.45;;
29984;SDS011;17387;42.690;23.328;2022-11-18T11:22:31;82.65;;;44.08;;
29984;SDS011;17387;42.690;23.328;2022-11-18T11:24:56;84.53;;;47.17;;
29984;SDS011;17387;42.690;23.328;2022-11-18T11:30:19;75.53;;;43.33;;
29984;SDS011;17387;42.690;23.328;2022-11-18T11:40:36;59.65;;;37.03;;
29984;SDS011;17387;42.690;23.328;2022-11-18T11:52:01;50.08;;;33.10;;
29984;SDS011;17387;42.690;23.328;2022-11-18T12:00:13;52.63;;;31.55;;
29984;SDS011;17387;42.690;23.328;2022-11-18T12:02:44;51.22;;;32.35;;
29984;SDS011;17387;42.690;23.328;2022-11-18T12:07:57;43.40;;;29.20;;
29984;SDS011;17387;42.690;23.328;2022-11-18T12:10:47;48.15;;;28.98;;
29984;SDS011;17387;42.690;23.328;2022-11-18T12:13:39;48.25;;;30.80;;
29984;SDS011;17387;42.690;23.328;2022-11-18T12:16:24;48.30;;;28.65;;
29984;SDS011;17387;42.690;23.328;2022-11-18T12:19:16;55.05;;;30.75;;
29984;SDS011;17387;42.690;23.328;2022-11-18T12:26:45;41.72;;;27.02;;
29984;SDS011;17387;42.690;23.328;2022-11-18T12:36:50;37.78;;;23.80;;
29984;SDS011;17387;42.690;23.328;2022-11-18T12:41:51;33.95;;;20.13;;
29984;SDS011;17387;42.690;23.328;2022-11-18T12:44:35;36.45;;;22.20;;
29984;SDS011;17387;42.690;23.328;2022-11-18T12:47:03;35.20;;;23.30;;
29984;SDS011;17387;42.690;23.328;2022-11-18T12:51:55;45.55;;;23.85;;
29984;SDS011;17387;42.690;23.328;2022-11-18T12:59:41;32.95;;;19.55;;
29984;SDS011;17387;42.690;23.328;2022-11-18T13:04:34;23.20;;;13.02;;
29984;SDS011;17387;42.690;23.328;2022-11-18T13:07:01;34.42;;;20.20;;
29984;SDS011;17387;42.690;23.328;2022-11-18T13:09:34;10.13;;;5.40;;
29984;SDS011;17387;42.690;23.328;2022-11-18T13:12:01;23.80;;;14.35;;
29984;SDS011;17387;42.690;23.328;2022-11-18T13:14:33;23.25;;;12.55;;
29984;SDS011;17387;42.690;23.328;2022-11-18T13:20:30;21.10;;;13.45;;
29984;SDS011;17387;42.690;23.328;2022-11-18T13:26:15;11.45;;;6.25;;
29984;SDS011;17387;42.690;23.328;2022-11-18T13:29:02;12.25;;;6.85;;
29984;SDS011;17387;42.690;23.328;2022-11-18T13:34:39;8.90;;;4.80;;
29984;SDS011;17387;42.690;23.328;2022-11-18T13:37:16;11.73;;;5.20;;
29984;SDS011;17387;42.690;23.328;2022-11-18T13:39:44;4.25;;;2.00;;
29984;SDS011;17387;42.690;23.328;2022-11-18T13:44:50;15.32;;;9.05;;
29984;SDS011;17387;42.690;23.328;2022-11-18T13:47:34;12.27;;;7.30;;
29984;SDS011;17387;42.690;23.328;2022-11-18T13:53:02;15.65;;;7.63;;
29984;SDS011;17387;42.690;23.328;2022-11-18T14:01:06;25.90;;;12.75;;
29984;SDS011;17387;42.690;23.328;2022-11-18T14:03:46;25.23;;;13.85;;
29984;SDS011;17387;42.690;23.328;2022-11-18T14:06:22;21.80;;;12.30;;
29984;SDS011;17387;42.690;23.328;2022-11-18T14:14:32;30.23;;;12.90;;
29984;SDS011;17387;42.690;23.328;2022-11-18T14:19:38;25.17;;;15.00;;
29984;SDS011;17387;42.690;23.328;2022-11-18T14:22:05;22.73;;;10.93;;
29984;SDS011;17387;42.690;23.328;2022-11-18T14:24:39;15.48;;;9.70;;
29984;SDS011;17387;42.690;23.328;2022-11-18T14:30:02;27.83;;;15.40;;
29984;SDS011;17387;42.690;23.328;2022-11-18T14:35:35;21.42;;;10.10;;
29984;SDS011;17387;42.690;23.328;2022-11-18T14:38:14;14.85;;;6.68;;
29984;SDS011;17387;42.690;23.328;2022-11-18T14:40:42;24.08;;;11.25;;
29984;SDS011;17387;42.690;23.328;2022-11-18T14:43:08;25.90;;;13.80;;
29984;SDS011;17387;42.690;23.328;2022-11-18T14:45:36;12.68;;;6.10;;
29984;SDS011;17387;42.690;23.328;2022-11-18T14:48:02;11.48;;;5.30;;
29984;SDS011;17387;42.690;23.328;2022-11-18T14:50:28;7.75;;;3.35;;
29984;SDS011;17387;42.690;23.328;2022-11-18T14:52:53;9.18;;;3.50;;
29984;SDS011;17387;42.690;23.328;2022-11-18T14:55:18;6.95;;;2.40;;
29984;SDS011;17387;42.690;23.328;2022-11-18T14:57:44;2.60;;;2.33;;
29984;SDS011;17387;42.690;23.328;2022-11-18T15:00:11;5.70;;;2.97;;
29984;SDS011;17387;42.690;23.328;2022-11-18T15:02:39;7.07;;;2.70;;
29984;SDS011;17387;42.690;23.328;2022-11-18T15:05:05;10.15;;;2.72;;
29984;SDS011;17387;42.690;23.328;2022-11-18T15:07:31;7.40;;;2.80;;
29984;SDS011;17387;42.690;23.328;2022-11-18T15:09:56;6.13;;;2.53;;
29984;SDS011;17387;42.690;23.328;2022-11-18T15:12:21;7.28;;;3.85;;
29984;SDS011;17387;42.690;23.328;2022-11-18T15:14:47;6.38;;;2.95;;
29984;SDS011;17387;42.690;23.328;2022-11-18T15:17:12;7.47;;;3.17;;
29984;SDS011;17387;42.690;23.328;2022-11-18T15:19:38;7.85;;;2.25;;
29984;SDS011;17387;42.690;23.328;2022-11-18T15:22:04;6.68;;;3.58;;
29984;SDS011;17387;42.690;23.328;2022-11-18T15:24:30;5.53;;;2.88;;
29984;SDS011;17387;42.690;23.328;2022-11-18T15:26:55;5.85;;;2.55;;
29984;SDS011;17387;42.690;23.328;2022-11-18T15:29:22;5.95;;;3.80;;
29984;SDS011;17387;42.690;23.328;2022-11-18T15:31:48;8.55;;;4.22;;
29984;SDS011;17387;42.690;23.328;2022-11-18T15:34:15;4.97;;;3.00;;
29984;SDS011;17387;42.690;23.328;2022-11-18T15:36:42;8.02;;;2.22;;
29984;SDS011;17387;42.690;23.328;2022-11-18T15:39:08;3.92;;;2.55;;
29984;SDS011;17387;42.690;23.328;2022-11-18T15:41:34;5.43;;;2.60;;
29984;SDS011;17387;42.690;23.328;2022-11-18T15:44:02;4.88;;;3.60;;
29984;SDS011;17387;42.690;23.328;2022-11-18T15:46:28;21.95;;;10.60;;
29984;SDS011;17387;42.690;23.328;2022-11-18T15:48:54;13.50;;;7.93;;
29984;SDS011;17387;42.690;23.328;2022-11-18T15:51:23;15.65;;;10.00;;
29984;SDS011;17387;42.690;23.328;2022-11-18T15:53:50;13.50;;;6.78;;
29984;SDS011;17387;42.690;23.328;2022-11-18T15:56:26;13.50;;;8.35;;
29984;SDS011;17387;42.690;23.328;2022-11-18T16:01:25;17.92;;;8.00;;
29984;SDS011;17387;42.690;23.328;2022-11-18T16:03:52;9.95;;;6.05;;
29984;SDS011;17387;42.690;23.328;2022-11-18T16:06:18;8.68;;;4.97;;
29984;SDS011;17387;42.690;23.328;2022-11-18T16:08:43;12.95;;;7.68;;
29984;SDS011;17387;42.690;23.328;2022-11-18T16:11:12;13.25;;;5.97;;
29984;SDS011;17387;42.690;23.328;2022-11-18T16:13:59;8.88;;;5.50;;
29984;SDS011;17387;42.690;23.328;2022-11-18T16:16:28;9.20;;;5.78;;
29984;SDS011;17387;42.690;23.328;2022-11-18T16:18:54;11.45;;;5.78;;
29984;SDS011;17387;42.690;23.328;2022-11-18T16:21:21;14.30;;;8.50;;
29984;SDS011;17387;42.690;23.328;2022-11-18T16:23:47;11.80;;;7.15;;
29984;SDS011;17387;42.690;23.328;2022-11-18T16:26:12;9.70;;;6.10;;
29984;SDS011;17387;42.690;23.328;2022-11-18T16:28:38;14.65;;;8.45;;
29984;SDS011;17387;42.690;23.328;2022-11-18T16:31:04;9.18;;;4.82;;
29984;SDS011;17387;42.690;23.328;2022-11-18T16:33:51;8.45;;;4.03;;
29984;SDS011;17387;42.690;23.328;2022-11-18T16:36:23;7.13;;;4.25;;
29984;SDS011;17387;42.690;23.328;2022-11-18T16:38:50;10.73;;;6.28;;
29984;SDS011;17387;42.690;23.328;2022-11-18T16:41:15;10.27;;;5.47;;
29984;SDS011;17387;42.690;23.328;2022-11-18T16:43:55;22.67;;;13.05;;
29984;SDS011;17387;42.690;23.328;2022-11-18T16:46:25;13.15;;;7.57;;
29984;SDS011;17387;42.690;23.328;2022-11-18T16:48:51;24.50;;;11.73;;
29984;SDS011;17387;42.690;23.328;2022-11-18T16:51:21;22.58;;;13.27;;
29984;SDS011;17387;42.690;23.328;2022-11-18T16:53:53;24.45;;;14.05;;
29984;SDS011;17387;42.690;23.328;2022-11-18T16:56:25;31.70;;;15.00;;
29984;SDS011;17387;42.690;23.328;2022-11-18T16:58:59;28.67;;;14.23;;
29984;SDS011;17387;42.690;23.328;2022-11-18T17:01:26;32.20;;;19.10;;
29984;SDS011;17387;42.690;23.328;2022-11-18T17:03:52;25.20;;;15.95;;
29984;SDS011;17387;42.690;23.328;2022-11-18T17:06:19;22.30;;;13.63;;
29984;SDS011;17387;42.690;23.328;2022-11-18T17:08:45;28.75;;;15.25;;
29984;SDS011;17387;42.690;23.328;2022-11-18T17:11:11;24.42;;;15.25;;